sensor_id;sensor_type;location;lat;lon;timestamp;temperature;humidity
3005;DHT22;1512;51.486;6.610;2023-05-19T00:03:50;11.20;99.90
3005;DHT22;1512;51.486;6.610;2023-05-19T00:08:01;11.20;99.90
3005;DHT22;1512;51.486;6.610;2023-05-19T00:12:11;11.20;99.90
3005;DHT22;1512;51.486;6.610;2023-05-19T00:16:21;11.10;99.90
3005;DHT22;1512;51.486;6.610;2023-05-19T00:20:31;11.10;99.90
3005;DHT22;1512;51.486;6.610;2023-05-19T00:24:41;10.90;99.90
3005;DHT22;1512;51.486;6.610;2023-05-19T00:29:09;10.80;99.90
3005;DHT22;1512;51.486;6.610;2023-05-19T00:33:18;10.80;99.90
3005;DHT22;1512;51.486;6.610;2023-05-19T00:37:27;10.80;99.90
3005;DHT22;1512;51.486;6.610;2023-05-19T00:41:35;10.80;99.90
3005;DHT22;1512;51.486;6.610;2023-05-19T00:45:44;10.70;99.90
3005;DHT22;1512;51.486;6.610;2023-05-19T00:49:53;10.70;99.90
3005;DHT22;1512;51.486;6.610;2023-05-19T00:54:02;10.60;99.90
3005;DHT22;1512;51.486;6.610;2023-05-19T00:58:11;10.60;99.90
3005;DHT22;1512;51.486;6.610;2023-05-19T01:02:21;10.70;99.90
3005;DHT22;1512;51.486;6.610;2023-05-19T01:06:30;10.50;99.90
3005;DHT22;1512;51.486;6.610;2023-05-19T01:10:39;10.30;99.90
3005;DHT22;1512;51.486;6.610;2023-05-19T01:14:48;10.30;99.90
3005;DHT22;1512;51.486;6.610;2023-05-19T01:23:47;10.20;99.90
3005;DHT22;1512;51.486;6.610;2023-05-19T01:32:08;10.30;99.90
3005;DHT22;1512;51.486;6.610;2023-05-19T01:36:20;10.30;99.90
3005;DHT22;1512;51.486;6.610;2023-05-19T01:40:29;10.30;99.90
3005;DHT22;1512;51.486;6.610;2023-05-19T01:44:40;10.40;99.90
3005;DHT22;1512;51.486;6.610;2023-05-19T01:48:49;10.40;99.90
3005;DHT22;1512;51.486;6.610;2023-05-19T01:53:00;10.30;99.90
3005;DHT22;1512;51.486;6.610;2023-05-19T01:57:23;10.30;99.90
3005;DHT22;1512;51.486;6.610;2023-05-19T02:01:39;10.20;99.90
3005;DHT22;1512;51.486;6.610;2023-05-19T02:10:26;10.20;99.90
3005;DHT22;1512;51.486;6.610;2023-05-19T02:14:59;10.10;99.90
3005;DHT22;1512;51.486;6.610;2023-05-19T02:19:18;10.10;99.90
3005;DHT22;1512;51.486;6.610;2023-05-19T02:23:19;10.10;99.90
3005;DHT22;1512;51.486;6.610;2023-05-19T02:27:28;10.10;99.90
3005;DHT22;1512;51.486;6.610;2023-05-19T02:31:37;10.10;99.90
3005;DHT22;1512;51.486;6.610;2023-05-19T02:35:46;10.00;99.90
3005;DHT22;1512;51.486;6.610;2023-05-19T02:39:56;10.00;99.90
3005;DHT22;1512;51.486;6.610;2023-05-19T02:44:04;9.90;99.90
3005;DHT22;1512;51.486;6.610;2023-05-19T02:48:14;9.90;99.90
3005;DHT22;1512;51.486;6.610;2023-05-19T02:52:22;9.90;99.90
3005;DHT22;1512;51.486;6.610;2023-05-19T02:56:31;9.80;99.90
3005;DHT22;1512;51.486;6.610;2023-05-19T03:00:40;9.80;99.90
3005;DHT22;1512;51.486;6.610;2023-05-19T03:04:50;9.70;99.90
3005;DHT22;1512;51.486;6.610;2023-05-19T03:08:59;9.70;99.90
3005;DHT22;1512;51.486;6.610;2023-05-19T03:13:08;9.70;99.90
3005;DHT22;1512;51.486;6.610;2023-05-19T03:17:17;9.70;99.90
3005;DHT22;1512;51.486;6.610;2023-05-19T03:21:26;9.70;99.90
3005;DHT22;1512;51.486;6.610;2023-05-19T03:25:35;9.70;99.90
3005;DHT22;1512;51.486;6.610;2023-05-19T03:29:44;9.70;99.90
3005;DHT22;1512;51.486;6.610;2023-05-19T03:33:52;9.70;99.90
3005;DHT22;1512;51.486;6.610;2023-05-19T03:38:01;9.60;99.90
3005;DHT22;1512;51.486;6.610;2023-05-19T03:42:10;9.60;99.90
3005;DHT22;1512;51.486;6.610;2023-05-19T03:46:19;9.60;99.90
3005;DHT22;1512;51.486;6.610;2023-05-19T03:50:27;9.50;99.90
3005;DHT22;1512;51.486;6.610;2023-05-19T03:54:38;9.50;99.90
3005;DHT22;1512;51.486;6.610;2023-05-19T03:58:49;9.50;99.90
3005;DHT22;1512;51.486;6.610;2023-05-19T04:02:58;9.50;99.90
3005;DHT22;1512;51.486;6.610;2023-05-19T04:07:07;9.50;99.90
3005;DHT22;1512;51.486;6.610;2023-05-19T04:11:16;9.50;99.90
3005;DHT22;1512;51.486;6.610;2023-05-19T04:15:26;9.50;99.90
3005;DHT22;1512;51.486;6.610;2023-05-19T04:19:35;9.40;99.90
3005;DHT22;1512;51.486;6.610;2023-05-19T04:23:44;9.50;99.90
3005;DHT22;1512;51.486;6.610;2023-05-19T04:27:52;9.50;99.90
3005;DHT22;1512;51.486;6.610;2023-05-19T04:32:03;9.40;99.90
3005;DHT22;1512;51.486;6.610;2023-05-19T04:36:14;9.40;1.00
3005;DHT22;1512;51.486;6.610;2023-05-19T04:40:24;9.40;99.90
3005;DHT22;1512;51.486;6.610;2023-05-19T04:44:33;9.50;1.00
3005;DHT22;1512;51.486;6.610;2023-05-19T04:48:42;9.50;99.90
3005;DHT22;1512;51.486;6.610;2023-05-19T04:52:51;9.50;99.90
3005;DHT22;1512;51.486;6.610;2023-05-19T04:57:00;9.50;99.90
3005;DHT22;1512;51.486;6.610;2023-05-19T05:01:09;9.60;99.90
3005;DHT22;1512;51.486;6.610;2023-05-19T05:05:19;9.60;1.00
3005;DHT22;1512;51.486;6.610;2023-05-19T05:09:28;9.60;99.90
3005;DHT22;1512;51.486;6.610;2023-05-19T05:13:37;9.60;1.00
3005;DHT22;1512;51.486;6.610;2023-05-19T05:17:53;9.70;1.00
3005;DHT22;1512;51.486;6.610;2023-05-19T05:22:02;9.70;99.90
3005;DHT22;1512;51.486;6.610;2023-05-19T05:26:19;9.70;1.00
3005;DHT22;1512;51.486;6.610;2023-05-19T05:30:30;9.80;1.00
3005;DHT22;1512;51.486;6.610;2023-05-19T05:34:38;9.90;1.00
3005;DHT22;1512;51.486;6.610;2023-05-19T05:38:48;9.90;1.00
3005;DHT22;1512;51.486;6.610;2023-05-19T05:42:57;10.00;1.00
3005;DHT22;1512;51.486;6.610;2023-05-19T05:56:07;10.20;1.00
3005;DHT22;1512;51.486;6.610;2023-05-19T06:00:17;10.30;1.00
3005;DHT22;1512;51.486;6.610;2023-05-19T06:04:26;10.40;99.90
3005;DHT22;1512;51.486;6.610;2023-05-19T06:08:35;10.50;1.00
3005;DHT22;1512;51.486;6.610;2023-05-19T06:12:43;10.60;99.90
3005;DHT22;1512;51.486;6.610;2023-05-19T06:16:52;10.70;1.00
3005;DHT22;1512;51.486;6.610;2023-05-19T06:21:01;10.80;1.00
3005;DHT22;1512;51.486;6.610;2023-05-19T06:25:10;10.90;99.90
3005;DHT22;1512;51.486;6.610;2023-05-19T06:29:19;11.00;99.90
3005;DHT22;1512;51.486;6.610;2023-05-19T06:33:27;11.10;99.90
3005;DHT22;1512;51.486;6.610;2023-05-19T06:37:36;11.20;99.90
3005;DHT22;1512;51.486;6.610;2023-05-19T06:41:46;11.40;99.90
3005;DHT22;1512;51.486;6.610;2023-05-19T06:45:54;11.50;99.90
3005;DHT22;1512;51.486;6.610;2023-05-19T06:50:03;11.60;99.90
3005;DHT22;1512;51.486;6.610;2023-05-19T06:54:12;11.70;99.90
3005;DHT22;1512;51.486;6.610;2023-05-19T06:58:23;11.90;99.90
3005;DHT22;1512;51.486;6.610;2023-05-19T07:02:31;12.00;99.90
3005;DHT22;1512;51.486;6.610;2023-05-19T07:06:40;12.20;99.90
3005;DHT22;1512;51.486;6.610;2023-05-19T07:10:49;12.30;99.90
3005;DHT22;1512;51.486;6.610;2023-05-19T07:14:57;12.50;99.90
3005;DHT22;1512;51.486;6.610;2023-05-19T07:19:06;12.70;99.90
3005;DHT22;1512;51.486;6.610;2023-05-19T07:23:15;12.90;99.90
3005;DHT22;1512;51.486;6.610;2023-05-19T07:27:24;13.10;99.90
3005;DHT22;1512;51.486;6.610;2023-05-19T07:31:33;13.20;99.90
3005;DHT22;1512;51.486;6.610;2023-05-19T07:35:47;13.40;99.90
3005;DHT22;1512;51.486;6.610;2023-05-19T07:39:56;13.50;99.90
3005;DHT22;1512;51.486;6.610;2023-05-19T07:44:05;13.60;99.90
3005;DHT22;1512;51.486;6.610;2023-05-19T07:48:14;13.80;99.90
3005;DHT22;1512;51.486;6.610;2023-05-19T07:52:25;13.90;99.90
3005;DHT22;1512;51.486;6.610;2023-05-19T07:56:33;14.10;99.90
3005;DHT22;1512;51.486;6.610;2023-05-19T08:00:42;14.20;99.90
3005;DHT22;1512;51.486;6.610;2023-05-19T08:04:52;14.40;99.90
3005;DHT22;1512;51.486;6.610;2023-05-19T08:09:01;14.60;99.90
3005;DHT22;1512;51.486;6.610;2023-05-19T08:13:12;14.90;99.90
3005;DHT22;1512;51.486;6.610;2023-05-19T08:17:20;15.20;99.90
3005;DHT22;1512;51.486;6.610;2023-05-19T08:21:33;15.40;99.90
3005;DHT22;1512;51.486;6.610;2023-05-19T08:25:42;15.50;99.90
3005;DHT22;1512;51.486;6.610;2023-05-19T08:29:51;15.70;99.90
3005;DHT22;1512;51.486;6.610;2023-05-19T08:34:21;15.90;99.90
3005;DHT22;1512;51.486;6.610;2023-05-19T08:38:29;16.10;99.90
3005;DHT22;1512;51.486;6.610;2023-05-19T08:42:38;16.20;99.90
3005;DHT22;1512;51.486;6.610;2023-05-19T08:46:47;16.30;99.90
3005;DHT22;1512;51.486;6.610;2023-05-19T08:51:19;16.50;99.90
3005;DHT22;1512;51.486;6.610;2023-05-19T08:59:58;16.60;99.90
3005;DHT22;1512;51.486;6.610;2023-05-19T09:04:08;16.70;99.90
3005;DHT22;1512;51.486;6.610;2023-05-19T09:08:17;16.80;99.90
3005;DHT22;1512;51.486;6.610;2023-05-19T09:12:26;17.00;99.90
3005;DHT22;1512;51.486;6.610;2023-05-19T09:16:35;17.30;99.90
3005;DHT22;1512;51.486;6.610;2023-05-19T09:20:44;17.50;99.90
3005;DHT22;1512;51.486;6.610;2023-05-19T09:24:53;17.60;99.90
3005;DHT22;1512;51.486;6.610;2023-05-19T09:29:18;17.70;99.90
3005;DHT22;1512;51.486;6.610;2023-05-19T09:33:23;17.90;99.90
3005;DHT22;1512;51.486;6.610;2023-05-19T09:37:31;18.00;99.90
3005;DHT22;1512;51.486;6.610;2023-05-19T09:41:40;18.20;99.90
3005;DHT22;1512;51.486;6.610;2023-05-19T09:45:54;18.20;99.90
3005;DHT22;1512;51.486;6.610;2023-05-19T09:50:08;18.40;99.90
3005;DHT22;1512;51.486;6.610;2023-05-19T09:58:42;18.40;99.90
3005;DHT22;1512;51.486;6.610;2023-05-19T10:02:52;18.50;99.90
3005;DHT22;1512;51.486;6.610;2023-05-19T10:07:03;18.60;99.90
3005;DHT22;1512;51.486;6.610;2023-05-19T10:11:13;18.80;99.90
3005;DHT22;1512;51.486;6.610;2023-05-19T10:15:23;19.00;99.90
3005;DHT22;1512;51.486;6.610;2023-05-19T10:19:33;19.20;99.90
3005;DHT22;1512;51.486;6.610;2023-05-19T10:23:43;19.30;99.90
3005;DHT22;1512;51.486;6.610;2023-05-19T10:28:12;19.20;99.90
3005;DHT22;1512;51.486;6.610;2023-05-19T10:32:25;19.20;99.90
3005;DHT22;1512;51.486;6.610;2023-05-19T10:36:48;19.50;99.90
3005;DHT22;1512;51.486;6.610;2023-05-19T10:41:23;19.80;99.90
3005;DHT22;1512;51.486;6.610;2023-05-19T10:45:33;19.80;99.90
3005;DHT22;1512;51.486;6.610;2023-05-19T10:49:44;19.80;99.90
3005;DHT22;1512;51.486;6.610;2023-05-19T10:53:53;19.80;99.90
3005;DHT22;1512;51.486;6.610;2023-05-19T10:58:01;19.90;99.90
3005;DHT22;1512;51.486;6.610;2023-05-19T11:06:37;20.00;99.90
3005;DHT22;1512;51.486;6.610;2023-05-19T11:10:49;20.10;99.90
3005;DHT22;1512;51.486;6.610;2023-05-19T11:14:59;20.20;99.90
3005;DHT22;1512;51.486;6.610;2023-05-19T11:23:27;20.00;99.90
3005;DHT22;1512;51.486;6.610;2023-05-19T11:27:39;20.30;99.90
3005;DHT22;1512;51.486;6.610;2023-05-19T11:31:48;20.50;99.90
3005;DHT22;1512;51.486;6.610;2023-05-19T11:35:58;20.60;99.90
3005;DHT22;1512;51.486;6.610;2023-05-19T11:40:07;20.70;99.90
3005;DHT22;1512;51.486;6.610;2023-05-19T11:44:17;20.70;99.90
3005;DHT22;1512;51.486;6.610;2023-05-19T11:48:26;20.50;99.90
3005;DHT22;1512;51.486;6.610;2023-05-19T11:52:34;20.40;99.90
3005;DHT22;1512;51.486;6.610;2023-05-19T11:56:45;20.50;99.90
3005;DHT22;1512;51.486;6.610;2023-05-19T12:01:03;20.70;99.90
3005;DHT22;1512;51.486;6.610;2023-05-19T12:05:18;20.90;99.90
3005;DHT22;1512;51.486;6.610;2023-05-19T12:09:27;21.00;99.90
3005;DHT22;1512;51.486;6.610;2023-05-19T12:13:36;20.90;99.90
3005;DHT22;1512;51.486;6.610;2023-05-19T12:17:47;21.00;99.90
3005;DHT22;1512;51.486;6.610;2023-05-19T12:21:55;21.20;99.90
3005;DHT22;1512;51.486;6.610;2023-05-19T12:26:04;21.20;99.90
3005;DHT22;1512;51.486;6.610;2023-05-19T12:30:13;21.30;99.90
3005;DHT22;1512;51.486;6.610;2023-05-19T12:34:22;21.20;99.90
3005;DHT22;1512;51.486;6.610;2023-05-19T12:38:31;21.30;99.90
3005;DHT22;1512;51.486;6.610;2023-05-19T12:42:43;21.40;99.90
3005;DHT22;1512;51.486;6.610;2023-05-19T12:46:51;21.50;99.90
3005;DHT22;1512;51.486;6.610;2023-05-19T12:51:00;21.70;99.90
3005;DHT22;1512;51.486;6.610;2023-05-19T12:55:10;21.80;99.90
3005;DHT22;1512;51.486;6.610;2023-05-19T12:59:25;21.70;99.90
3005;DHT22;1512;51.486;6.610;2023-05-19T13:03:41;21.80;99.90
3005;DHT22;1512;51.486;6.610;2023-05-19T13:07:58;21.60;99.90
3005;DHT22;1512;51.486;6.610;2023-05-19T13:12:08;21.70;99.90
3005;DHT22;1512;51.486;6.610;2023-05-19T13:16:17;21.70;99.90
3005;DHT22;1512;51.486;6.610;2023-05-19T13:20:25;21.70;99.90
3005;DHT22;1512;51.486;6.610;2023-05-19T13:24:35;21.80;99.90
3005;DHT22;1512;51.486;6.610;2023-05-19T13:28:44;21.90;99.90
3005;DHT22;1512;51.486;6.610;2023-05-19T13:32:53;22.00;99.90
3005;DHT22;1512;51.486;6.610;2023-05-19T13:37:02;22.10;99.90
3005;DHT22;1512;51.486;6.610;2023-05-19T13:41:13;22.10;99.90
3005;DHT22;1512;51.486;6.610;2023-05-19T13:45:22;22.20;99.90
3005;DHT22;1512;51.486;6.610;2023-05-19T13:49:31;22.20;99.90
3005;DHT22;1512;51.486;6.610;2023-05-19T13:53:40;22.30;99.90
3005;DHT22;1512;51.486;6.610;2023-05-19T13:57:50;22.40;99.90
3005;DHT22;1512;51.486;6.610;2023-05-19T14:01:59;22.30;99.90
3005;DHT22;1512;51.486;6.610;2023-05-19T14:06:09;22.20;99.90
3005;DHT22;1512;51.486;6.610;2023-05-19T14:10:18;22.40;99.90
3005;DHT22;1512;51.486;6.610;2023-05-19T14:14:27;22.50;99.90
3005;DHT22;1512;51.486;6.610;2023-05-19T14:18:35;22.50;99.90
3005;DHT22;1512;51.486;6.610;2023-05-19T14:22:44;22.40;99.90
3005;DHT22;1512;51.486;6.610;2023-05-19T14:26:53;22.40;99.90
3005;DHT22;1512;51.486;6.610;2023-05-19T14:31:02;22.30;99.90
3005;DHT22;1512;51.486;6.610;2023-05-19T14:35:10;22.50;99.90
3005;DHT22;1512;51.486;6.610;2023-05-19T14:39:19;22.40;99.90
3005;DHT22;1512;51.486;6.610;2023-05-19T14:43:28;22.40;99.90
3005;DHT22;1512;51.486;6.610;2023-05-19T14:47:36;22.30;99.90
3005;DHT22;1512;51.486;6.610;2023-05-19T14:51:45;22.40;99.90
3005;DHT22;1512;51.486;6.610;2023-05-19T14:55:54;22.20;99.90
3005;DHT22;1512;51.486;6.610;2023-05-19T15:00:03;22.10;99.90
3005;DHT22;1512;51.486;6.610;2023-05-19T15:04:12;22.20;99.90
3005;DHT22;1512;51.486;6.610;2023-05-19T15:08:20;22.30;99.90
3005;DHT22;1512;51.486;6.610;2023-05-19T15:12:30;22.20;99.90
3005;DHT22;1512;51.486;6.610;2023-05-19T15:16:38;22.40;99.90
3005;DHT22;1512;51.486;6.610;2023-05-19T15:20:47;22.40;99.90
3005;DHT22;1512;51.486;6.610;2023-05-19T15:24:56;22.20;99.90
3005;DHT22;1512;51.486;6.610;2023-05-19T15:29:05;22.00;99.90
3005;DHT22;1512;51.486;6.610;2023-05-19T15:33:13;22.00;99.90
3005;DHT22;1512;51.486;6.610;2023-05-19T15:37:22;22.10;99.90
3005;DHT22;1512;51.486;6.610;2023-05-19T15:41:31;22.10;99.90
3005;DHT22;1512;51.486;6.610;2023-05-19T15:45:40;21.90;99.90
3005;DHT22;1512;51.486;6.610;2023-05-19T15:49:48;21.80;99.90
3005;DHT22;1512;51.486;6.610;2023-05-19T15:53:57;21.90;99.90
3005;DHT22;1512;51.486;6.610;2023-05-19T15:58:06;22.00;99.90
3005;DHT22;1512;51.486;6.610;2023-05-19T16:02:15;21.90;99.90
3005;DHT22;1512;51.486;6.610;2023-05-19T16:06:24;21.90;99.90
3005;DHT22;1512;51.486;6.610;2023-05-19T16:10:34;21.70;99.90
3005;DHT22;1512;51.486;6.610;2023-05-19T16:14:42;21.80;99.90
3005;DHT22;1512;51.486;6.610;2023-05-19T16:18:51;21.80;99.90
3005;DHT22;1512;51.486;6.610;2023-05-19T16:23:00;21.60;99.90
3005;DHT22;1512;51.486;6.610;2023-05-19T16:27:09;21.60;99.90
3005;DHT22;1512;51.486;6.610;2023-05-19T16:31:18;21.40;99.90
3005;DHT22;1512;51.486;6.610;2023-05-19T16:35:27;21.30;99.90
3005;DHT22;1512;51.486;6.610;2023-05-19T16:39:36;21.20;99.90
3005;DHT22;1512;51.486;6.610;2023-05-19T16:43:45;21.00;99.90
3005;DHT22;1512;51.486;6.610;2023-05-19T16:47:53;21.00;99.90
3005;DHT22;1512;51.486;6.610;2023-05-19T16:52:03;20.80;99.90
3005;DHT22;1512;51.486;6.610;2023-05-19T16:56:12;20.90;99.90
3005;DHT22;1512;51.486;6.610;2023-05-19T17:00:20;20.80;99.90
3005;DHT22;1512;51.486;6.610;2023-05-19T17:04:29;20.80;99.90
3005;DHT22;1512;51.486;6.610;2023-05-19T17:08:38;20.70;99.90
3005;DHT22;1512;51.486;6.610;2023-05-19T17:12:46;20.50;99.90
3005;DHT22;1512;51.486;6.610;2023-05-19T17:16:55;20.40;99.90
3005;DHT22;1512;51.486;6.610;2023-05-19T17:21:04;20.30;99.90
3005;DHT22;1512;51.486;6.610;2023-05-19T17:25:13;20.20;99.90
3005;DHT22;1512;51.486;6.610;2023-05-19T17:29:22;20.10;99.90
3005;DHT22;1512;51.486;6.610;2023-05-19T17:33:31;20.10;99.90
3005;DHT22;1512;51.486;6.610;2023-05-19T17:37:39;19.90;99.90
3005;DHT22;1512;51.486;6.610;2023-05-19T17:41:48;19.80;99.90
3005;DHT22;1512;51.486;6.610;2023-05-19T17:45:57;19.70;99.90
3005;DHT22;1512;51.486;6.610;2023-05-19T17:50:07;19.60;99.90
3005;DHT22;1512;51.486;6.610;2023-05-19T17:54:17;19.60;99.90
3005;DHT22;1512;51.486;6.610;2023-05-19T17:58:26;19.50;99.90
3005;DHT22;1512;51.486;6.610;2023-05-19T18:02:36;19.40;99.90
3005;DHT22;1512;51.486;6.610;2023-05-19T18:06:45;19.30;99.90
3005;DHT22;1512;51.486;6.610;2023-05-19T18:10:55;19.20;99.90
3005;DHT22;1512;51.486;6.610;2023-05-19T18:15:05;19.10;99.90
3005;DHT22;1512;51.486;6.610;2023-05-19T18:19:13;19.00;99.90
3005;DHT22;1512;51.486;6.610;2023-05-19T18:23:22;18.90;99.90
3005;DHT22;1512;51.486;6.610;2023-05-19T18:27:31;18.80;99.90
3005;DHT22;1512;51.486;6.610;2023-05-19T18:31:40;18.70;99.90
3005;DHT22;1512;51.486;6.610;2023-05-19T18:35:49;18.60;99.90
3005;DHT22;1512;51.486;6.610;2023-05-19T18:39:58;18.50;99.90
3005;DHT22;1512;51.486;6.610;2023-05-19T18:44:07;18.40;99.90
3005;DHT22;1512;51.486;6.610;2023-05-19T18:48:16;18.30;99.90
3005;DHT22;1512;51.486;6.610;2023-05-19T18:52:25;18.20;99.90
3005;DHT22;1512;51.486;6.610;2023-05-19T18:56:35;18.10;99.90
3005;DHT22;1512;51.486;6.610;2023-05-19T19:00:44;18.10;99.90
3005;DHT22;1512;51.486;6.610;2023-05-19T19:04:52;18.00;99.90
3005;DHT22;1512;51.486;6.610;2023-05-19T19:09:01;17.90;99.90
3005;DHT22;1512;51.486;6.610;2023-05-19T19:13:10;17.90;99.90
3005;DHT22;1512;51.486;6.610;2023-05-19T19:17:19;17.80;99.90
3005;DHT22;1512;51.486;6.610;2023-05-19T19:21:28;17.70;99.90
3005;DHT22;1512;51.486;6.610;2023-05-19T19:25:38;17.60;99.90
3005;DHT22;1512;51.486;6.610;2023-05-19T19:29:46;17.60;99.90
3005;DHT22;1512;51.486;6.610;2023-05-19T19:33:55;17.50;99.90
3005;DHT22;1512;51.486;6.610;2023-05-19T19:38:05;17.40;99.90
3005;DHT22;1512;51.486;6.610;2023-05-19T19:42:14;17.30;99.90
3005;DHT22;1512;51.486;6.610;2023-05-19T19:46:23;17.20;99.90
3005;DHT22;1512;51.486;6.610;2023-05-19T19:50:32;17.10;99.90
3005;DHT22;1512;51.486;6.610;2023-05-19T19:55:01;17.00;99.90
3005;DHT22;1512;51.486;6.610;2023-05-19T19:59:09;16.90;99.90
3005;DHT22;1512;51.486;6.610;2023-05-19T20:03:19;16.80;99.90
3005;DHT22;1512;51.486;6.610;2023-05-19T20:07:29;16.80;99.90
3005;DHT22;1512;51.486;6.610;2023-05-19T20:11:38;16.80;99.90
3005;DHT22;1512;51.486;6.610;2023-05-19T20:15:47;16.70;99.90
3005;DHT22;1512;51.486;6.610;2023-05-19T20:19:56;16.50;99.90
3005;DHT22;1512;51.486;6.610;2023-05-19T20:24:06;16.40;99.90
3005;DHT22;1512;51.486;6.610;2023-05-19T20:28:15;16.40;99.90
3005;DHT22;1512;51.486;6.610;2023-05-19T20:32:23;16.30;99.90
3005;DHT22;1512;51.486;6.610;2023-05-19T20:36:32;16.20;99.90
3005;DHT22;1512;51.486;6.610;2023-05-19T20:40:41;16.10;99.90
3005;DHT22;1512;51.486;6.610;2023-05-19T20:44:50;16.10;99.90
3005;DHT22;1512;51.486;6.610;2023-05-19T20:48:58;16.10;99.90
3005;DHT22;1512;51.486;6.610;2023-05-19T20:53:07;16.00;99.90
3005;DHT22;1512;51.486;6.610;2023-05-19T20:57:16;15.90;99.90
3005;DHT22;1512;51.486;6.610;2023-05-19T21:01:25;15.90;99.90
3005;DHT22;1512;51.486;6.610;2023-05-19T21:05:41;15.90;99.90
3005;DHT22;1512;51.486;6.610;2023-05-19T21:09:49;15.80;99.90
3005;DHT22;1512;51.486;6.610;2023-05-19T21:14:02;15.80;99.90
3005;DHT22;1512;51.486;6.610;2023-05-19T21:18:11;15.80;99.90
3005;DHT22;1512;51.486;6.610;2023-05-19T21:22:20;15.70;99.90
3005;DHT22;1512;51.486;6.610;2023-05-19T21:26:29;15.60;99.90
3005;DHT22;1512;51.486;6.610;2023-05-19T21:30:37;15.60;99.90
3005;DHT22;1512;51.486;6.610;2023-05-19T21:34:46;15.50;99.90
3005;DHT22;1512;51.486;6.610;2023-05-19T21:38:55;15.40;99.90
3005;DHT22;1512;51.486;6.610;2023-05-19T21:43:04;15.40;99.90
3005;DHT22;1512;51.486;6.610;2023-05-19T21:47:13;15.40;99.90
3005;DHT22;1512;51.486;6.610;2023-05-19T21:51:21;15.30;99.90
3005;DHT22;1512;51.486;6.610;2023-05-19T21:55:30;15.30;99.90
3005;DHT22;1512;51.486;6.610;2023-05-19T21:59:39;15.20;99.90
3005;DHT22;1512;51.486;6.610;2023-05-19T22:03:48;15.20;99.90
3005;DHT22;1512;51.486;6.610;2023-05-19T22:07:57;15.20;99.90
3005;DHT22;1512;51.486;6.610;2023-05-19T22:12:07;15.10;99.90
3005;DHT22;1512;51.486;6.610;2023-05-19T22:16:16;15.10;99.90
3005;DHT22;1512;51.486;6.610;2023-05-19T22:20:25;15.00;99.90
3005;DHT22;1512;51.486;6.610;2023-05-19T22:24:33;15.00;99.90
3005;DHT22;1512;51.486;6.610;2023-05-19T22:28:42;15.00;99.90
3005;DHT22;1512;51.486;6.610;2023-05-19T22:32:51;14.90;99.90
3005;DHT22;1512;51.486;6.610;2023-05-19T22:37:02;14.90;99.90
3005;DHT22;1512;51.486;6.610;2023-05-19T22:41:10;14.80;99.90
3005;DHT22;1512;51.486;6.610;2023-05-19T22:45:19;14.70;99.90
3005;DHT22;1512;51.486;6.610;2023-05-19T22:49:31;14.70;99.90
3005;DHT22;1512;51.486;6.610;2023-05-19T22:53:39;14.70;99.90
3005;DHT22;1512;51.486;6.610;2023-05-19T22:57:52;14.70;99.90
3005;DHT22;1512;51.486;6.610;2023-05-19T23:02:05;14.70;99.90
3005;DHT22;1512;51.486;6.610;2023-05-19T23:06:15;14.60;99.90
3005;DHT22;1512;51.486;6.610;2023-05-19T23:10:30;14.60;99.90
3005;DHT22;1512;51.486;6.610;2023-05-19T23:14:39;14.60;99.90
3005;DHT22;1512;51.486;6.610;2023-05-19T23:18:47;14.50;99.90
3005;DHT22;1512;51.486;6.610;2023-05-19T23:22:56;14.50;99.90
3005;DHT22;1512;51.486;6.610;2023-05-19T23:27:07;14.50;99.90
3005;DHT22;1512;51.486;6.610;2023-05-19T23:31:15;14.40;99.90
3005;DHT22;1512;51.486;6.610;2023-05-19T23:35:24;14.30;99.90
3005;DHT22;1512;51.486;6.610;2023-05-19T23:39:33;14.20;99.90
3005;DHT22;1512;51.486;6.610;2023-05-19T23:43:44;14.10;99.90
3005;DHT22;1512;51.486;6.610;2023-05-19T23:47:52;14.00;99.90
3005;DHT22;1512;51.486;6.610;2023-05-19T23:52:01;14.00;99.90
3005;DHT22;1512;51.486;6.610;2023-05-19T23:56:10;14.00;99.90
